Time,TemperatureF,DewpointF,PressureIn,WindDirection,WindDirectionDegrees,WindSpeedMPH,WindSpeedGustMPH,Humidity,HourlyPrecipIn,Conditions,Clouds,dailyrainin,SoftwareType,DateUTC
2013-06-03 00:01:00,71.1,56.5,29.69,NW,315,4.6,4.6,60,0.00,RA,,0.00,WeatherDisplay:10.37,2013-06-03 04:01:00,
2013-06-03 00:02:00,71.1,56.5,29.69,SSW,202,3.5,3.5,60,0.00,RA,,0.00,WeatherDisplay:10.37,2013-06-03 04:02:00,
2013-06-03 00:04:00,71.1,56.0,29.69,South,180,8.1,8.1,59,0.00,RA,,0.00,WeatherDisplay:10.37,2013-06-03 04:04:00,
2013-06-03 00:09:00,71.1,56.0,29.69,South,180,5.8,5.8,59,0.00,RA,,0.00,WeatherDisplay:10.37,2013-06-03 04:09:00,
2013-06-03 00:14:00,71.2,55.2,29.69,SSW,202,6.9,6.9,57,0.00,CLR,,0.00,WeatherDisplay:10.37,2013-06-03 04:14:00,
2013-06-03 00:19:00,71.4,54.9,29.69,South,180,6.9,6.9,56,0.00,CLR,,0.00,WeatherDisplay:10.37,2013-06-03 04:19:00,
2013-06-03 00:24:00,71.6,54.6,29.69,SE,135,5.8,5.8,55,0.00,CLR,,0.00,WeatherDisplay:10.37,2013-06-03 04:24:00,
2013-06-03 00:29:00,71.8,53.7,29.69,NE,45,5.8,5.8,53,0.00,CLR,,0.00,WeatherDisplay:10.37,2013-06-03 04:29:00,
2013-06-03 00:34:00,72.0,53.9,29.69,South,180,5.8,5.8,53,0.00,CLR,,0.00,WeatherDisplay:10.37,2013-06-03 04:34:00,
2013-06-03 00:39:00,72.3,53.2,29.69,SSE,158,10.4,10.4,51,0.00,CLR,,0.00,WeatherDisplay:10.37,2013-06-03 04:39:00,
2013-06-03 00:44:00,72.3,52.6,29.70,SE,135,5.8,5.8,50,0.00,CLR,,0.00,WeatherDisplay:10.37,2013-06-03 04:44:00,
2013-06-03 00:49:00,72.5,52.8,29.70,South,180,5.8,5.8,50,0.00,CLR,,0.00,WeatherDisplay:10.37,2013-06-03 04:49:00,
2013-06-03 00:54:00,72.7,53.0,29.70,South,180,4.6,4.6,50,0.00,CLR,,0.00,WeatherDisplay:10.37,2013-06-03 04:54:00,
2013-06-03 00:59:00,72.5,53.3,29.71,SW,225,11.5,11.5,51,0.00,CLR,,0.00,WeatherDisplay:10.37,2013-06-03 04:59:00,
2013-06-03 01:04:00,72.1,53.0,29.72,SSW,202,5.8,5.8,51,0.00,CLR,,0.00,WeatherDisplay:10.37,2013-06-03 05:04:00,
2013-06-03 01:09:00,72.0,53.4,29.72,South,180,6.9,6.9,52,0.00,CLR,,0.00,WeatherDisplay:10.37,2013-06-03 05:09:00,
2013-06-03 01:14:00,72.0,53.9,29.72,SE,135,8.1,8.1,53,0.00,CLR,,0.00,WeatherDisplay:10.37,2013-06-03 05:14:00,
2013-06-03 01:19:00,71.6,54.6,29.72,SSW,202,7.6,7.6,55,0.00,CLR,,0.00,WeatherDisplay:10.37,2013-06-03 05:19:00,
2013-06-03 01:24:00,71.4,54.9,29.72,SSW,202,4.6,4.6,56,0.00,CLR,,0.00,WeatherDisplay:10.37,2013-06-03 05:24:00,
2013-06-03 01:29:00,71.1,55.5,29.71,South,180,9.2,9.2,58,0.00,CLR,,0.00,WeatherDisplay:10.37,2013-06-03 05:29:00,
2013-06-03 01:34:00,71.1,56.0,29.72,South,180,3.5,3.5,59,0.00,CLR,,0.00,WeatherDisplay:10.37,2013-06-03 05:34:00,
2013-06-03 01:39:00,70.9,56.8,29.72,North,0,8.1,8.1,61,0.01,RA,,0.01,WeatherDisplay:10.37,2013-06-03 05:39:00,
2013-06-03 01:44:00,70.7,57.0,29.71,SW,225,3.5,0.0,62,0.01,RA,,0.02,WeatherDisplay:10.37,2013-06-03 05:44:00,
2013-06-03 01:49:00,70.5,57.8,29.71,SE,135,3.5,0.0,64,0.02,RA,,0.02,WeatherDisplay:10.37,2013-06-03 05:49:00,
2013-06-03 01:54:00,70.3,58.0,29.71,South,180,1.2,1.2,65,0.04,RA,,0.04,WeatherDisplay:10.37,2013-06-03 05:54:00,
2013-06-03 01:59:00,70.3,58.9,29.70,SW,225,1.2,1.2,67,0.05,RA,,0.06,WeatherDisplay:10.37,2013-06-03 05:59:00,
2013-06-03 02:04:00,70.2,59.5,29.70,NW,315,8.1,8.1,69,0.06,RA,,0.06,WeatherDisplay:10.37,2013-06-03 06:04:00,
2013-06-03 02:09:00,70.2,59.9,29.69,South,180,3.5,3.5,70,0.06,RA,,0.06,WeatherDisplay:10.37,2013-06-03 06:09:00,
2013-06-03 02:14:00,70.2,60.3,29.70,SW,225,3.5,0.0,71,0.06,CLR,,0.06,WeatherDisplay:10.37,2013-06-03 06:14:00,
2013-06-03 02:19:00,70.2,60.7,29.70,South,180,3.5,0.0,72,0.06,CLR,,0.06,WeatherDisplay:10.37,2013-06-03 06:19:00,
2013-06-03 02:24:00,70.2,60.7,29.70,South,180,3.5,3.5,72,0.06,CLR,,0.06,WeatherDisplay:10.37,2013-06-03 06:24:00,
2013-06-03 02:29:00,70.2,61.1,29.69,South,180,3.5,3.5,73,0.06,CLR,,0.06,WeatherDisplay:10.37,2013-06-03 06:29:00,
2013-06-03 02:34:00,70.2,61.5,29.70,South,180,6.9,6.9,74,0.06,CLR,,0.06,WeatherDisplay:10.37,2013-06-03 06:34:00,
2013-06-03 02:39:00,70.2,61.5,29.70,SE,135,5.8,0.0,74,0.05,CLR,,0.07,WeatherDisplay:10.37,2013-06-03 06:39:00,
2013-06-03 02:44:00,70.2,61.9,29.70,South,180,4.6,4.6,75,0.06,RA,,0.07,WeatherDisplay:10.37,2013-06-03 06:44:00,
2013-06-03 02:49:00,70.2,61.9,29.70,West,270,4.6,4.6,75,0.05,RA,,0.07,WeatherDisplay:10.37,2013-06-03 06:49:00,
2013-06-03 02:54:00,70.2,62.2,29.70,South,180,5.8,5.8,76,0.04,CLR,,0.07,WeatherDisplay:10.37,2013-06-03 06:54:00,
2013-06-03 02:59:00,70.2,62.2,29.70,South,180,5.8,5.8,76,0.02,CLR,,0.07,WeatherDisplay:10.37,2013-06-03 06:59:00,
2013-06-03 03:04:00,70.2,62.6,29.70,South,180,9.2,9.2,77,0.01,CLR,,0.07,WeatherDisplay:10.37,2013-06-03 07:04:00,
2013-06-03 03:09:00,70.2,62.6,29.69,South,180,6.9,6.9,77,0.01,CLR,,0.07,WeatherDisplay:10.37,2013-06-03 07:09:00,
2013-06-03 03:14:00,70.2,62.6,29.70,SW,225,6.9,6.9,77,0.02,RA,,0.08,WeatherDisplay:10.37,2013-06-03 07:14:00,
2013-06-03 03:19:00,70.0,62.4,29.69,South,180,4.6,4.6,77,0.02,RA,,0.08,WeatherDisplay:10.37,2013-06-03 07:19:00,
2013-06-03 03:24:00,70.0,62.4,29.70,South,180,3.5,3.5,77,0.02,,,0.08,WeatherDisplay:10.37,2013-06-03 07:24:00,
2013-06-03 03:29:00,70.0,62.4,29.69,North,0,5.8,5.8,77,0.02,CLR,,0.08,WeatherDisplay:10.37,2013-06-03 07:29:00,
2013-06-03 03:34:00,70.0,62.4,29.69,North,0,5.8,5.8,77,0.02,CLR,,0.08,WeatherDisplay:10.37,2013-06-03 07:34:00,
2013-06-03 03:39:00,69.8,62.3,29.69,South,180,5.8,5.8,77,0.02,CLR,,0.08,WeatherDisplay:10.37,2013-06-03 07:39:00,
2013-06-03 03:44:00,69.8,62.3,29.69,South,180,4.6,0.0,77,0.01,CLR,,0.08,WeatherDisplay:10.37,2013-06-03 07:44:00,
2013-06-03 03:49:00,69.8,62.3,29.70,South,180,4.6,0.0,77,0.01,CLR,,0.08,WeatherDisplay:10.37,2013-06-03 07:49:00,
2013-06-03 03:54:00,69.8,62.3,29.69,South,180,2.3,2.3,77,0.01,CLR,,0.08,WeatherDisplay:10.37,2013-06-03 07:54:00,
2013-06-03 03:59:00,69.6,62.1,29.69,South,180,2.3,0.0,77,0.01,CLR,,0.08,WeatherDisplay:10.37,2013-06-03 07:59:00,
2013-06-03 04:04:00,69.6,62.1,29.69,NE,45,4.6,0.0,77,0.01,CLR,,0.08,WeatherDisplay:10.37,2013-06-03 08:04:00,
2013-06-03 04:09:00,69.6,62.1,29.69,South,180,3.5,0.0,77,0.02,RA,,0.09,WeatherDisplay:10.37,2013-06-03 08:09:00,
2013-06-03 04:14:00,69.4,61.9,29.69,SSW,202,1.2,1.2,77,0.01,RA,,0.09,WeatherDisplay:10.37,2013-06-03 08:14:00,
2013-06-03 04:19:00,69.4,61.9,29.69,South,180,3.5,0.0,77,0.01,CLR,,0.09,WeatherDisplay:10.37,2013-06-03 08:19:00,
2013-06-03 04:24:00,69.4,61.9,29.69,South,180,0.0,0.0,77,0.01,CLR,,0.09,WeatherDisplay:10.37,2013-06-03 08:24:00,
2013-06-03 04:29:00,69.4,62.3,29.69,SW,225,2.3,0.0,78,0.01,CLR,,0.09,WeatherDisplay:10.37,2013-06-03 08:29:00,
2013-06-03 04:34:00,69.4,62.3,29.69,SE,135,2.3,0.0,78,0.01,CLR,,0.09,WeatherDisplay:10.37,2013-06-03 08:34:00,
2013-06-03 04:39:00,69.4,62.3,29.69,SW,225,2.3,2.3,78,0.01,CLR,,0.09,WeatherDisplay:10.37,2013-06-03 08:39:00,
2013-06-03 04:44:00,68.5,61.0,29.69,West,270,3.5,0.0,77,0.01,CLR,,0.09,WeatherDisplay:10.37,2013-06-03 08:44:00,
2013-06-03 04:49:00,67.6,59.8,29.69,SE,135,3.5,3.5,76,0.01,CLR,,0.09,WeatherDisplay:10.37,2013-06-03 08:49:00,
2013-06-03 04:54:00,66.9,59.1,29.70,SW,225,3.5,3.5,76,0.01,CLR,,0.09,WeatherDisplay:10.37,2013-06-03 08:54:00,
2013-06-03 04:59:00,66.2,58.4,29.70,West,270,2.3,0.0,76,0.01,CLR,,0.09,WeatherDisplay:10.37,2013-06-03 08:59:00,
2013-06-03 05:04:00,66.0,58.2,29.69,SW,225,1.2,1.2,76,0.04,RA,,0.13,WeatherDisplay:10.37,2013-06-03 09:04:00,
2013-06-03 05:09:00,66.4,58.9,29.69,South,180,3.5,0.0,77,0.06,RA,,0.15,WeatherDisplay:10.37,2013-06-03 09:09:00,
2013-06-03 05:14:00,67.1,60.0,29.69,South,180,1.2,1.2,78,0.07,RA,,0.17,WeatherDisplay:10.37,2013-06-03 09:14:00,
2013-06-03 05:19:00,67.5,60.7,29.69,East,90,0.0,0.0,79,0.08,RA,,0.18,WeatherDisplay:10.37,2013-06-03 09:19:00,
2013-06-03 05:24:00,68.0,61.6,29.69,SW,225,0.0,0.0,80,0.08,RA,,0.18,WeatherDisplay:10.37,2013-06-03 09:24:00,
2013-06-03 05:29:00,68.4,61.9,29.69,South,180,2.3,2.3,80,0.08,CLR,,0.18,WeatherDisplay:10.37,2013-06-03 09:29:00,
2013-06-03 05:34:00,68.7,62.7,29.69,South,180,0.0,0.0,81,0.08,CLR,,0.18,WeatherDisplay:10.37,2013-06-03 09:34:00,
2013-06-03 05:39:00,69.1,63.4,29.69,SW,225,1.2,1.2,82,0.08,CLR,,0.18,WeatherDisplay:10.37,2013-06-03 09:39:00,
2013-06-03 05:44:00,69.3,63.5,29.70,SSW,202,1.2,0.0,82,0.08,CLR,,0.18,WeatherDisplay:10.37,2013-06-03 09:44:00,
2013-06-03 05:49:00,69.4,64.0,29.69,West,270,3.5,3.5,83,0.08,CLR,,0.18,WeatherDisplay:10.37,2013-06-03 09:49:00,
2013-06-03 05:54:00,69.4,64.0,29.70,South,180,3.5,0.0,83,0.08,CLR,,0.18,WeatherDisplay:10.37,2013-06-03 09:54:00,
2013-06-03 05:59:00,69.4,64.0,29.69,SW,225,1.2,0.0,83,0.08,CLR,,0.18,WeatherDisplay:10.37,2013-06-03 09:59:00,
2013-06-03 06:04:00,69.6,64.6,29.69,SW,225,3.5,0.0,84,0.06,CLR,,0.18,WeatherDisplay:10.37,2013-06-03 10:04:00,
2013-06-03 06:09:00,69.6,64.6,29.70,South,180,4.6,4.6,84,0.02,CLR,,0.18,WeatherDisplay:10.37,2013-06-03 10:09:00,
2013-06-03 06:14:00,69.6,64.9,29.70,East,90,4.6,4.6,85,0.01,CLR,,0.18,WeatherDisplay:10.37,2013-06-03 10:14:00,
2013-06-03 06:19:00,69.8,65.1,29.70,South,180,6.9,6.9,85,0.00,CLR,,0.18,WeatherDisplay:10.37,2013-06-03 10:19:00,
2013-06-03 06:24:00,69.6,65.2,29.70,South,180,8.1,0.0,86,0.00,CLR,,0.18,WeatherDisplay:10.37,2013-06-03 10:24:00,
2013-06-03 06:29:00,69.6,65.2,29.70,NW,315,3.5,3.5,86,0.00,CLR,,0.18,WeatherDisplay:10.37,2013-06-03 10:29:00,
2013-06-03 06:34:00,69.4,65.1,29.69,SW,225,3.5,3.5,86,0.00,CLR,,0.18,WeatherDisplay:10.37,2013-06-03 10:34:00,
2013-06-03 06:39:00,69.4,65.4,29.69,South,180,3.5,3.5,87,0.00,CLR,,0.18,WeatherDisplay:10.37,2013-06-03 10:39:00,
2013-06-03 06:44:00,69.4,65.4,29.69,South,180,3.5,3.5,87,0.00,CLR,,0.18,WeatherDisplay:10.37,2013-06-03 10:44:00,
2013-06-03 06:49:00,69.4,65.4,29.70,South,180,9.2,9.2,87,0.00,CLR,,0.18,WeatherDisplay:10.37,2013-06-03 10:49:00,
2013-06-03 06:54:00,69.4,65.7,29.69,South,180,6.9,6.9,88,0.00,CLR,,0.18,WeatherDisplay:10.37,2013-06-03 10:54:00,
2013-06-03 06:59:00,69.4,65.7,29.70,NNE,22,8.1,8.1,88,0.00,CLR,,0.18,WeatherDisplay:10.37,2013-06-03 10:59:00,
2013-06-03 07:04:00,69.4,65.7,29.70,South,180,6.9,6.9,88,0.00,CLR,,0.18,WeatherDisplay:10.37,2013-06-03 11:04:00,
2013-06-03 07:09:00,69.6,65.9,29.69,South,180,3.5,3.5,88,0.00,CLR,,0.18,WeatherDisplay:10.37,2013-06-03 11:09:00,
2013-06-03 07:14:00,69.6,65.9,29.69,North,0,5.8,5.8,88,0.00,CLR,,0.18,WeatherDisplay:10.37,2013-06-03 11:14:00,
2013-06-03 07:19:00,69.6,65.9,29.69,South,180,1.2,0.0,88,0.00,CLR,,0.18,WeatherDisplay:10.37,2013-06-03 11:19:00,
2013-06-03 07:24:00,69.8,66.1,29.69,North,0,3.5,0.0,88,0.00,CLR,,0.18,WeatherDisplay:10.37,2013-06-03 11:24:00,
2013-06-03 07:29:00,70.0,66.6,29.69,South,180,1.2,1.2,89,0.00,CLR,,0.18,WeatherDisplay:10.37,2013-06-03 11:29:00,
2013-06-03 07:34:00,69.8,66.1,29.70,SW,225,5.8,5.8,88,0.00,CLR,,0.18,WeatherDisplay:10.37,2013-06-03 11:34:00,
2013-06-03 07:39:00,69.8,66.1,29.69,South,180,3.5,0.0,88,0.00,CLR,,0.18,WeatherDisplay:10.37,2013-06-03 11:39:00,
2013-06-03 07:44:00,69.8,66.1,29.69,SE,135,5.8,5.8,88,0.01,RA,,0.19,WeatherDisplay:10.37,2013-06-03 11:44:00,
2013-06-03 07:49:00,69.8,66.1,29.70,South,180,3.5,0.0,88,0.01,RA,,0.19,WeatherDisplay:10.37,2013-06-03 11:49:00,
2013-06-03 07:54:00,69.8,66.1,29.70,SW,225,1.2,0.0,88,0.01,,,0.19,WeatherDisplay:10.37,2013-06-03 11:54:00,
2013-06-03 07:59:00,70.0,66.3,29.70,South,180,6.9,6.9,88,0.01,CLR,,0.19,WeatherDisplay:10.37,2013-06-03 11:59:00,
2013-06-03 08:04:00,70.0,66.3,29.70,South,180,6.9,6.9,88,0.01,CLR,,0.19,WeatherDisplay:10.37,2013-06-03 12:04:00,
2013-06-03 08:09:00,70.2,66.4,29.70,NE,45,0.0,0.0,88,0.01,CLR,,0.19,WeatherDisplay:10.37,2013-06-03 12:09:00,
2013-06-03 08:14:00,70.3,66.6,29.70,South,180,5.8,0.0,88,0.01,CLR,,0.19,WeatherDisplay:10.37,2013-06-03 12:14:00,
2013-06-03 08:19:00,70.3,66.6,29.71,SE,135,5.8,5.8,88,0.01,CLR,,0.19,WeatherDisplay:10.37,2013-06-03 12:19:00,
2013-06-03 08:24:00,70.5,66.8,29.70,South,180,5.8,0.0,88,0.01,CLR,,0.19,WeatherDisplay:10.37,2013-06-03 12:24:00,
2013-06-03 08:31:00,70.5,66.8,29.70,South,180,3.5,3.5,88,0.01,RA,,0.19,WeatherDisplay:10.37,2013-06-03 12:31:00,
2013-06-03 08:36:00,70.7,67.0,29.71,South,180,3.5,3.5,88,0.01,CLR,,0.19,WeatherDisplay:10.37,2013-06-03 12:36:00,
2013-06-03 08:41:00,70.9,67.1,29.70,South,180,2.3,0.0,88,0.00,CLR,,0.20,WeatherDisplay:10.37,2013-06-03 12:41:00,
2013-06-03 08:46:00,71.1,67.3,29.71,East,90,1.2,0.0,88,0.01,RA,,0.20,WeatherDisplay:10.37,2013-06-03 12:46:00,
2013-06-03 08:51:00,71.4,67.7,29.71,SE,135,2.3,2.3,88,0.01,RA,,0.20,WeatherDisplay:10.37,2013-06-03 12:51:00,
2013-06-03 08:56:00,71.6,67.9,29.71,SW,225,2.3,0.0,88,0.01,CLR,,0.20,WeatherDisplay:10.37,2013-06-03 12:56:00,
2013-06-03 09:01:00,71.8,67.7,29.70,North,0,1.2,0.0,87,0.01,CLR,,0.20,WeatherDisplay:10.37,2013-06-03 13:01:00,
2013-06-03 09:06:00,71.8,67.4,29.70,South,180,5.8,0.0,86,0.01,CLR,,0.20,WeatherDisplay:10.37,2013-06-03 13:06:00,
2013-06-03 09:11:00,71.8,67.4,29.71,SSE,158,4.6,4.6,86,0.01,CLR,,0.20,WeatherDisplay:10.37,2013-06-03 13:11:00,
2013-06-03 09:17:00,71.6,66.8,29.71,South,180,3.5,3.5,85,0.01,CLR,,0.20,WeatherDisplay:10.37,2013-06-03 13:17:00,
2013-06-03 09:22:00,71.6,66.8,29.70,NE,45,2.3,0.0,85,0.01,CLR,,0.20,WeatherDisplay:10.37,2013-06-03 13:22:00,
2013-06-03 09:27:00,70.7,65.3,29.71,NE,45,2.3,2.3,83,0.01,CLR,,0.20,WeatherDisplay:10.37,2013-06-03 13:27:00,
2013-06-03 09:32:00,70.0,64.2,29.71,NE,45,1.2,0.0,82,0.01,CLR,,0.20,WeatherDisplay:10.37,2013-06-03 13:32:00,
2013-06-03 09:37:00,69.6,63.9,29.71,ENE,68,0.0,0.0,82,0.01,CLR,,0.20,WeatherDisplay:10.37,2013-06-03 13:37:00,
2013-06-03 09:42:00,69.6,63.9,29.70,South,180,1.2,0.0,82,0.00,CLR,,0.20,WeatherDisplay:10.37,2013-06-03 13:42:00,
2013-06-03 09:47:00,69.6,63.9,29.70,NE,45,4.6,4.6,82,0.00,CLR,,0.20,WeatherDisplay:10.37,2013-06-03 13:47:00,
2013-06-03 09:52:00,69.3,63.5,29.70,SW,225,3.5,0.0,82,0.00,CLR,,0.20,WeatherDisplay:10.37,2013-06-03 13:52:00,
2013-06-03 09:57:00,69.1,63.4,29.70,SE,135,3.5,3.5,82,0.00,CLR,,0.20,WeatherDisplay:10.37,2013-06-03 13:57:00,
2013-06-03 10:02:00,69.4,64.0,29.70,South,180,3.5,0.0,83,0.00,CLR,,0.20,WeatherDisplay:10.37,2013-06-03 14:02:00,
2013-06-03 10:07:00,69.4,64.0,29.69,South,180,2.3,2.3,83,0.00,CLR,,0.20,WeatherDisplay:10.37,2013-06-03 14:07:00,
2013-06-03 10:12:00,69.8,64.4,29.69,SW,225,2.3,2.3,83,0.00,CLR,,0.20,WeatherDisplay:10.37,2013-06-03 14:12:00,
2013-06-03 10:17:00,70.5,65.1,29.69,South,180,8.1,8.1,83,0.00,CLR,,0.20,WeatherDisplay:10.37,2013-06-03 14:17:00,
2013-06-03 10:22:00,70.7,65.3,29.70,SW,225,5.8,5.8,83,0.00,CLR,,0.20,WeatherDisplay:10.37,2013-06-03 14:22:00,
2013-06-03 10:27:00,70.0,63.2,29.69,South,180,4.6,4.6,79,0.00,CLR,,0.20,WeatherDisplay:10.37,2013-06-03 14:27:00,
2013-06-03 10:32:00,69.8,62.6,29.69,SW,225,4.6,0.0,78,0.00,CLR,,0.20,WeatherDisplay:10.37,2013-06-03 14:32:00,
2013-06-03 10:37:00,70.0,62.8,29.69,South,180,2.3,2.3,78,0.00,CLR,,0.20,WeatherDisplay:10.37,2013-06-03 14:37:00,
2013-06-03 10:42:00,70.5,63.7,29.69,SW,225,4.6,4.6,79,0.00,CLR,,0.20,WeatherDisplay:10.37,2013-06-03 14:42:00,
2013-06-03 10:47:00,71.2,64.8,29.69,SE,135,5.8,0.0,80,0.00,CLR,,0.20,WeatherDisplay:10.37,2013-06-03 14:47:00,
2013-06-03 10:52:00,71.8,65.3,29.69,SW,225,2.3,2.3,80,0.00,CLR,,0.20,WeatherDisplay:10.37,2013-06-03 14:52:00,
2013-06-03 10:57:00,72.1,65.3,29.69,South,180,3.5,3.5,79,0.00,CLR,,0.20,WeatherDisplay:10.37,2013-06-03 14:57:00,
2013-06-03 11:02:00,72.3,65.4,29.69,NE,45,0.0,0.0,79,0.00,CLR,,0.20,WeatherDisplay:10.37,2013-06-03 15:02:00,
2013-06-03 11:07:00,72.7,65.8,29.69,South,180,3.5,3.5,79,0.00,CLR,,0.20,WeatherDisplay:10.37,2013-06-03 15:07:00,
2013-06-03 11:12:00,73.0,65.8,29.69,South,180,4.6,4.6,78,0.00,CLR,,0.20,WeatherDisplay:10.37,2013-06-03 15:12:00,
2013-06-03 11:17:00,73.6,66.3,29.69,East,90,3.5,0.0,78,0.00,CLR,,0.20,WeatherDisplay:10.37,2013-06-03 15:17:00,
2013-06-03 11:22:00,73.2,65.2,29.70,SE,135,3.5,3.5,76,0.00,CLR,,0.20,WeatherDisplay:10.37,2013-06-03 15:22:00,
2013-06-03 11:27:00,73.2,65.2,29.69,SW,225,3.5,3.5,76,0.00,CLR,,0.20,WeatherDisplay:10.37,2013-06-03 15:27:00,
2013-06-03 11:32:00,73.4,65.4,29.70,East,90,3.5,0.0,76,0.00,CLR,,0.20,WeatherDisplay:10.37,2013-06-03 15:32:00,
2013-06-03 11:37:00,73.8,66.1,29.69,North,0,1.2,0.0,77,0.00,CLR,,0.20,WeatherDisplay:10.37,2013-06-03 15:37:00,
2013-06-03 11:42:00,73.4,65.0,29.69,North,0,1.2,0.0,75,0.00,CLR,,0.20,WeatherDisplay:10.37,2013-06-03 15:42:00,
2013-06-03 11:47:00,72.9,63.7,29.70,South,180,5.8,0.0,73,0.00,CLR,,0.20,WeatherDisplay:10.37,2013-06-03 15:47:00,
2013-06-03 11:52:00,72.3,62.8,29.70,South,180,3.5,0.0,72,0.01,RA,,0.21,WeatherDisplay:10.37,2013-06-03 15:52:00,
2013-06-03 11:57:00,72.3,62.8,29.69,SE,135,3.5,0.0,72,0.01,RA,,0.21,WeatherDisplay:10.37,2013-06-03 15:57:00,
2013-06-03 12:02:00,72.5,63.4,29.69,NE,45,2.3,0.0,73,0.01,CLR,,0.21,WeatherDisplay:10.37,2013-06-03 16:02:00,
2013-06-03 12:08:00,73.2,64.0,29.68,South,180,3.5,3.5,73,0.01,CLR,,0.21,WeatherDisplay:10.37,2013-06-03 16:08:00,
2013-06-03 12:13:00,73.8,64.6,29.68,South,180,2.3,0.0,73,0.01,CLR,,0.21,WeatherDisplay:10.37,2013-06-03 16:13:00,
2013-06-03 12:18:00,74.1,64.9,29.68,South,180,1.2,0.0,73,0.01,CLR,,0.21,WeatherDisplay:10.37,2013-06-03 16:18:00,
2013-06-03 12:23:00,74.5,64.9,29.68,SSW,202,2.3,2.3,72,0.01,CLR,,0.21,WeatherDisplay:10.37,2013-06-03 16:23:00,
2013-06-03 12:28:00,74.8,65.2,29.68,SW,225,2.3,0.0,72,0.01,CLR,,0.21,WeatherDisplay:10.37,2013-06-03 16:28:00,
2013-06-03 12:33:00,74.8,64.8,29.68,NE,45,5.8,5.8,71,0.01,CLR,,0.21,WeatherDisplay:10.37,2013-06-03 16:33:00,
2013-06-03 12:38:00,74.1,62.9,29.69,South,180,5.8,5.8,68,0.01,CLR,,0.21,WeatherDisplay:10.37,2013-06-03 16:38:00,
2013-06-03 12:43:00,73.6,62.4,29.69,NE,45,5.8,5.8,68,0.01,CLR,,0.21,WeatherDisplay:10.37,2013-06-03 16:43:00,
2013-06-03 12:48:00,73.0,61.9,29.69,South,180,3.5,0.0,68,0.01,CLR,,0.21,WeatherDisplay:10.37,2013-06-03 16:48:00,
2013-06-03 12:53:00,72.9,61.7,29.68,NE,45,3.5,0.0,68,0.00,CLR,,0.21,WeatherDisplay:10.37,2013-06-03 16:53:00,
2013-06-03 12:58:00,73.0,61.9,29.69,NE,45,3.5,3.5,68,0.00,CLR,,0.21,WeatherDisplay:10.37,2013-06-03 16:58:00,
2013-06-03 13:03:00,73.6,62.4,29.68,South,180,3.5,0.0,68,0.00,CLR,,0.21,WeatherDisplay:10.37,2013-06-03 17:03:00,
2013-06-03 13:08:00,74.1,62.5,29.68,NE,45,1.2,0.0,67,0.00,CLR,,0.21,WeatherDisplay:10.37,2013-06-03 17:08:00,
2013-06-03 13:13:00,74.7,62.5,29.68,SE,135,3.5,0.0,66,0.00,CLR,,0.21,WeatherDisplay:10.37,2013-06-03 17:13:00,
2013-06-03 13:18:00,75.2,63.1,29.68,West,270,2.3,0.0,66,0.00,CLR,,0.21,WeatherDisplay:10.37,2013-06-03 17:18:00,
2013-06-03 13:23:00,76.6,64.4,29.68,NE,45,1.2,0.0,66,0.00,CLR,,0.21,WeatherDisplay:10.37,2013-06-03 17:23:00,
2013-06-03 13:28:00,77.7,64.1,29.68,South,180,3.5,3.5,63,0.00,CLR,,0.21,WeatherDisplay:10.37,2013-06-03 17:28:00,
2013-06-03 13:33:00,77.7,59.7,29.69,SW,225,4.6,4.6,54,0.00,CLR,,0.21,WeatherDisplay:10.37,2013-06-03 17:33:00,
2013-06-03 13:38:00,77.5,58.5,29.69,North,0,4.6,0.0,52,0.00,CLR,,0.21,WeatherDisplay:10.37,2013-06-03 17:38:00,
2013-06-03 13:43:00,77.5,59.1,29.69,South,180,2.3,0.0,53,0.00,CLR,,0.21,WeatherDisplay:10.37,2013-06-03 17:43:00,
2013-06-03 13:48:00,77.7,58.7,29.68,NE,45,4.6,4.6,52,0.00,CLR,,0.21,WeatherDisplay:10.37,2013-06-03 17:48:00,
2013-06-03 13:53:00,78.3,59.2,29.68,SE,135,3.5,0.0,52,0.00,CLR,,0.21,WeatherDisplay:10.37,2013-06-03 17:53:00,
2013-06-03 13:58:00,79.2,58.4,29.68,SW,225,4.6,0.0,49,0.00,CLR,,0.21,WeatherDisplay:10.37,2013-06-03 17:58:00,
2013-06-03 14:03:00,79.7,57.7,29.68,NE,45,6.9,6.9,47,0.00,CLR,,0.21,WeatherDisplay:10.37,2013-06-03 18:03:00,
2013-06-03 14:08:00,79.2,57.2,29.68,SW,225,3.5,3.5,47,0.00,CLR,,0.21,WeatherDisplay:10.37,2013-06-03 18:08:00,
2013-06-03 14:13:00,78.6,56.7,29.68,WNW,292,5.8,0.0,47,0.00,CLR,,0.21,WeatherDisplay:10.37,2013-06-03 18:13:00,
2013-06-03 14:18:00,78.8,57.4,29.67,SW,225,4.6,4.6,48,0.00,CLR,,0.21,WeatherDisplay:10.37,2013-06-03 18:18:00,
2013-06-03 14:23:00,79.5,56.3,29.68,West,270,4.6,4.6,45,0.00,CLR,,0.21,WeatherDisplay:10.37,2013-06-03 18:23:00,
2013-06-03 14:28:00,79.0,55.2,29.68,NE,45,2.3,0.0,44,0.00,CLR,,0.21,WeatherDisplay:10.37,2013-06-03 18:28:00,
2013-06-03 14:33:00,79.0,54.6,29.68,SW,225,4.6,0.0,43,0.00,CLR,,0.21,WeatherDisplay:10.37,2013-06-03 18:33:00,
2013-06-03 14:38:00,79.7,55.9,29.68,SW,225,3.5,3.5,44,0.00,CLR,,0.21,WeatherDisplay:10.37,2013-06-03 18:38:00,
2013-06-03 14:43:00,79.3,54.3,29.68,East,90,5.8,5.8,42,0.00,CLR,,0.21,WeatherDisplay:10.37,2013-06-03 18:43:00,
2013-06-03 14:48:00,79.2,55.4,29.68,SW,225,2.3,2.3,44,0.00,CLR,,0.21,WeatherDisplay:10.37,2013-06-03 18:48:00,
2013-06-03 14:53:00,80.2,53.7,29.68,SW,225,4.6,4.6,40,0.00,CLR,,0.21,WeatherDisplay:10.37,2013-06-03 18:53:00,
2013-06-03 14:58:00,80.6,51.9,29.68,SE,135,5.8,5.8,37,0.00,CLR,,0.21,WeatherDisplay:10.37,2013-06-03 18:58:00,
2013-06-03 15:03:00,79.5,50.2,29.68,SW,225,5.8,5.8,36,0.00,CLR,,0.21,WeatherDisplay:10.37,2013-06-03 19:03:00,
2013-06-03 15:08:00,77.5,49.2,29.67,South,180,5.8,5.8,37,0.00,CLR,,0.21,WeatherDisplay:10.37,2013-06-03 19:08:00,
2013-06-03 15:13:00,76.6,50.5,29.68,SE,135,5.8,0.0,40,0.00,CLR,,0.21,WeatherDisplay:10.37,2013-06-03 19:13:00,
2013-06-03 15:18:00,77.2,52.9,29.68,NE,45,3.5,3.5,43,0.00,CLR,,0.21,WeatherDisplay:10.37,2013-06-03 19:18:00,
2013-06-03 15:23:00,77.5,52.0,29.68,South,180,8.1,0.0,41,0.00,CLR,,0.21,WeatherDisplay:10.37,2013-06-03 19:23:00,
2013-06-03 15:28:00,77.4,51.1,29.67,ENE,68,5.8,5.8,40,0.00,CLR,,0.21,WeatherDisplay:10.37,2013-06-03 19:28:00,
2013-06-03 15:33:00,75.9,49.9,29.67,SW,225,5.8,5.8,40,0.00,CLR,,0.21,WeatherDisplay:10.37,2013-06-03 19:33:00,
2013-06-03 15:38:00,74.8,50.2,29.67,East,90,3.5,3.5,42,0.00,CLR,,0.21,WeatherDisplay:10.37,2013-06-03 19:38:00,
2013-06-03 15:43:00,73.6,49.1,29.67,South,180,8.1,8.1,42,0.00,CLR,,0.21,WeatherDisplay:10.37,2013-06-03 19:43:00,
2013-06-03 15:48:00,72.5,48.7,29.67,SE,135,6.9,6.9,43,0.00,CLR,,0.21,WeatherDisplay:10.37,2013-06-03 19:48:00,
2013-06-03 15:53:00,72.1,49.0,29.67,South,180,6.9,6.9,44,0.00,CLR,,0.21,WeatherDisplay:10.37,2013-06-03 19:53:00,
2013-06-03 15:58:00,72.0,50.0,29.67,WNW,292,5.8,5.8,46,0.00,CLR,,0.21,WeatherDisplay:10.37,2013-06-03 19:58:00,
2013-06-03 16:03:00,72.0,50.6,29.67,NE,45,4.6,4.6,47,0.00,CLR,,0.21,WeatherDisplay:10.37,2013-06-03 20:03:00,
2013-06-03 16:08:00,73.0,52.2,29.66,SW,225,2.3,2.3,48,0.00,CLR,,0.21,WeatherDisplay:10.37,2013-06-03 20:08:00,
2013-06-03 16:13:00,73.8,51.1,29.66,SW,225,2.3,2.3,45,0.00,CLR,,0.21,WeatherDisplay:10.37,2013-06-03 20:13:00,
2013-06-03 16:18:00,74.3,51.0,29.66,North,0,3.5,3.5,44,0.00,CLR,,0.21,WeatherDisplay:10.37,2013-06-03 20:18:00,
2013-06-03 16:23:00,75.0,51.6,29.66,SE,135,3.5,0.0,44,0.00,CLR,,0.21,WeatherDisplay:10.37,2013-06-03 20:23:00,
2013-06-03 16:28:00,75.9,51.8,29.66,West,270,3.5,3.5,43,0.00,CLR,,0.21,WeatherDisplay:10.37,2013-06-03 20:28:00,
2013-06-03 16:33:00,76.1,51.3,29.66,South,180,2.3,2.3,42,0.00,CLR,,0.21,WeatherDisplay:10.37,2013-06-03 20:33:00,
2013-06-03 16:38:00,75.9,51.2,29.66,NNW,338,3.5,0.0,42,0.00,CLR,,0.21,WeatherDisplay:10.37,2013-06-03 20:38:00,
2013-06-03 16:43:00,75.6,50.9,29.66,SE,135,4.6,0.0,42,0.00,CLR,,0.21,WeatherDisplay:10.37,2013-06-03 20:43:00,
2013-06-03 16:48:00,75.2,51.2,29.66,North,0,5.8,5.8,43,0.00,CLR,,0.21,WeatherDisplay:10.37,2013-06-03 20:48:00,
2013-06-03 16:53:00,74.5,51.1,29.66,SW,225,4.6,4.6,44,0.00,CLR,,0.21,WeatherDisplay:10.37,2013-06-03 20:53:00,
2013-06-03 16:58:00,74.1,52.0,29.66,ENE,68,3.5,3.5,46,0.00,CLR,,0.21,WeatherDisplay:10.37,2013-06-03 20:58:00,
2013-06-03 17:03:00,73.9,52.4,29.66,North,0,1.2,0.0,47,0.00,CLR,,0.21,WeatherDisplay:10.37,2013-06-03 21:03:00,
2013-06-03 17:08:00,73.8,52.3,29.66,SW,225,3.5,3.5,47,0.00,CLR,,0.21,WeatherDisplay:10.37,2013-06-03 21:08:00,
2013-06-03 17:13:00,73.6,52.7,29.65,SE,135,1.2,0.0,48,0.00,CLR,,0.21,WeatherDisplay:10.37,2013-06-03 21:13:00,
2013-06-03 17:18:00,73.6,53.2,29.65,SW,225,1.2,0.0,49,0.00,CLR,,0.21,WeatherDisplay:10.37,2013-06-03 21:18:00,
2013-06-03 17:23:00,73.6,53.8,29.65,South,180,1.2,0.0,50,0.00,CLR,,0.21,WeatherDisplay:10.37,2013-06-03 21:23:00,
2013-06-03 17:28:00,73.4,53.6,29.65,SW,225,1.2,0.0,50,0.00,CLR,,0.21,WeatherDisplay:10.37,2013-06-03 21:28:00,
2013-06-03 17:33:00,72.5,52.2,29.65,South,180,3.5,0.0,49,0.00,CLR,,0.21,WeatherDisplay:10.37,2013-06-03 21:33:00,
2013-06-03 17:38:00,72.1,52.5,29.65,West,270,0.0,0.0,50,0.00,CLR,,0.21,WeatherDisplay:10.37,2013-06-03 21:38:00,
2013-06-03 17:43:00,71.8,52.1,29.65,NE,45,3.5,0.0,50,0.00,CLR,,0.21,WeatherDisplay:10.37,2013-06-03 21:43:00,
2013-06-03 17:48:00,71.4,52.9,29.64,SW,225,1.2,0.0,52,0.00,CLR,,0.21,WeatherDisplay:10.37,2013-06-03 21:48:00,
2013-06-03 17:53:00,71.4,53.4,29.65,South,180,3.5,0.0,53,0.00,CLR,,0.21,WeatherDisplay:10.37,2013-06-03 21:53:00,
2013-06-03 17:58:00,71.4,52.9,29.65,SW,225,3.5,0.0,52,0.00,CLR,,0.21,WeatherDisplay:10.37,2013-06-03 21:58:00,
2013-06-03 18:03:00,71.8,53.7,29.65,South,180,0.0,0.0,53,0.00,CLR,,0.21,WeatherDisplay:10.37,2013-06-03 22:03:00,
2013-06-03 18:08:00,72.5,54.4,29.65,NW,315,0.0,0.0,53,0.00,CLR,,0.21,WeatherDisplay:10.37,2013-06-03 22:08:00,
2013-06-03 18:13:00,73.0,54.9,29.65,South,180,0.0,0.0,53,0.00,CLR,,0.21,WeatherDisplay:10.37,2013-06-03 22:13:00,
2013-06-03 18:18:00,73.2,54.0,29.65,South,180,0.0,0.0,51,0.00,CLR,,0.21,WeatherDisplay:10.37,2013-06-03 22:18:00,
2013-06-03 18:23:00,73.8,55.0,29.65,South,180,0.0,0.0,52,0.00,CLR,,0.21,WeatherDisplay:10.37,2013-06-03 22:23:00,
2013-06-03 18:28:00,74.1,54.8,29.65,South,180,0.0,0.0,51,0.00,CLR,,0.21,WeatherDisplay:10.37,2013-06-03 22:28:00,
2013-06-03 18:33:00,74.3,55.0,29.65,South,180,0.0,0.0,51,0.00,CLR,,0.21,WeatherDisplay:10.37,2013-06-03 22:33:00,
2013-06-03 18:38:00,74.5,55.2,29.65,South,180,0.0,0.0,51,0.00,CLR,,0.21,WeatherDisplay:10.37,2013-06-03 22:38:00,
2013-06-03 18:43:00,74.7,55.3,29.65,South,180,0.0,0.0,51,0.00,CLR,,0.21,WeatherDisplay:10.37,2013-06-03 22:43:00,
2013-06-03 18:48:00,74.5,55.2,29.65,South,180,0.0,0.0,51,0.00,CLR,,0.21,WeatherDisplay:10.37,2013-06-03 22:48:00,
2013-06-03 18:53:00,74.3,55.5,29.66,West,270,0.0,0.0,52,0.00,CLR,,0.21,WeatherDisplay:10.37,2013-06-03 22:53:00,
2013-06-03 18:58:00,74.1,55.9,29.65,West,270,0.0,0.0,53,0.00,CLR,,0.21,WeatherDisplay:10.37,2013-06-03 22:58:00,
2013-06-03 19:03:00,74.1,55.9,29.66,West,270,0.0,0.0,53,0.00,CLR,,0.21,WeatherDisplay:10.37,2013-06-03 23:03:00,
2013-06-03 19:08:00,73.8,56.1,29.66,West,270,0.0,0.0,54,0.00,CLR,,0.21,WeatherDisplay:10.37,2013-06-03 23:08:00,
2013-06-03 19:13:00,73.6,56.4,29.66,West,270,0.0,0.0,55,0.00,CLR,,0.21,WeatherDisplay:10.37,2013-06-03 23:13:00,
2013-06-03 19:18:00,73.4,56.7,29.67,SSE,158,5.8,5.8,56,0.00,CLR,,0.21,WeatherDisplay:10.37,2013-06-03 23:18:00,
2013-06-03 19:23:00,72.3,54.7,29.67,South,180,3.1,0.0,54,0.06,RA,,0.30,WeatherDisplay:10.37,2013-06-03 23:23:00,
2013-06-03 19:28:00,70.5,53.6,29.68,South,180,4.6,4.6,55,0.11,RA,,0.32,WeatherDisplay:10.37,2013-06-03 23:28:00,
2013-06-03 19:33:00,69.6,54.2,29.68,South,180,2.3,0.0,58,0.14,RA,,0.35,WeatherDisplay:10.37,2013-06-03 23:33:00,
2013-06-03 19:38:00,69.3,54.8,29.68,South,180,0.0,0.0,60,0.17,RA,,0.38,WeatherDisplay:10.37,2013-06-03 23:38:00,
2013-06-03 19:43:00,69.1,55.1,29.67,East,90,0.0,0.0,61,0.18,RA,,0.39,WeatherDisplay:10.37,2013-06-03 23:43:00,
2013-06-03 19:48:00,68.9,55.3,29.68,NE,45,0.0,0.0,62,0.18,RA,,0.39,WeatherDisplay:10.37,2013-06-03 23:48:00,
2013-06-03 19:53:00,68.9,55.8,29.67,East,90,0.0,0.0,63,0.19,RA,,0.40,WeatherDisplay:10.37,2013-06-03 23:53:00,
2013-06-03 19:58:00,68.5,55.9,29.67,NE,45,0.0,0.0,64,0.19,RA,,0.40,WeatherDisplay:10.37,2013-06-03 23:58:00,
2013-06-03 20:03:00,68.4,56.1,29.67,NE,45,0.0,0.0,65,0.19,CLR,,0.40,WeatherDisplay:10.37,2013-06-04 00:03:00,
2013-06-03 20:08:00,68.4,56.1,29.67,NE,45,0.0,0.0,65,0.19,CLR,,0.40,WeatherDisplay:10.37,2013-06-04 00:08:00,
2013-06-03 20:13:00,68.4,56.6,29.67,NE,45,0.0,0.0,66,0.19,CLR,,0.40,WeatherDisplay:10.37,2013-06-04 00:13:00,
2013-06-03 20:18:00,68.4,56.6,29.67,NE,45,0.0,0.0,66,0.19,CLR,,0.40,WeatherDisplay:10.37,2013-06-04 00:18:00,
2013-06-03 20:23:00,68.2,56.8,29.67,NE,45,0.0,0.0,67,0.13,CLR,,0.40,WeatherDisplay:10.37,2013-06-04 00:23:00,
2013-06-03 20:28:00,68.2,56.8,29.67,NE,45,0.0,0.0,67,0.08,CLR,,0.40,WeatherDisplay:10.37,2013-06-04 00:28:00,
2013-06-03 20:33:00,68.2,57.2,29.68,NE,45,0.0,0.0,68,0.05,CLR,,0.40,WeatherDisplay:10.37,2013-06-04 00:33:00,
2013-06-03 20:38:00,68.2,57.2,29.68,NE,45,0.0,0.0,68,0.02,CLR,,0.40,WeatherDisplay:10.37,2013-06-04 00:38:00,
2013-06-03 20:43:00,68.2,57.2,29.68,NE,45,0.0,0.0,68,0.01,CLR,,0.40,WeatherDisplay:10.37,2013-06-04 00:43:00,
2013-06-03 20:48:00,68.0,57.4,29.68,NE,45,0.0,0.0,69,0.01,CLR,,0.40,WeatherDisplay:10.37,2013-06-04 00:48:00,
2013-06-03 20:53:00,68.0,57.4,29.69,NE,45,0.0,0.0,69,0.00,CLR,,0.40,WeatherDisplay:10.37,2013-06-04 00:53:00,
2013-06-03 20:58:00,68.0,57.8,29.69,NE,45,0.0,0.0,70,0.00,CLR,,0.40,WeatherDisplay:10.37,2013-06-04 00:58:00,
2013-06-03 21:03:00,68.0,57.8,29.69,NE,45,0.0,0.0,70,0.00,CLR,,0.40,WeatherDisplay:10.37,2013-06-04 01:03:00,
2013-06-03 21:08:00,68.2,58.0,29.69,NE,45,0.0,0.0,70,0.00,CLR,,0.40,WeatherDisplay:10.37,2013-06-04 01:08:00,
2013-06-03 21:13:00,68.2,58.4,29.69,NE,45,0.0,0.0,71,0.00,CLR,,0.40,WeatherDisplay:10.37,2013-06-04 01:13:00,
2013-06-03 21:18:00,68.2,58.4,29.69,NE,45,0.0,0.0,71,0.00,CLR,,0.40,WeatherDisplay:10.37,2013-06-04 01:18:00,
2013-06-03 21:23:00,68.4,59.0,29.69,South,180,0.0,0.0,72,0.00,CLR,,0.40,WeatherDisplay:10.37,2013-06-04 01:23:00,
2013-06-03 21:28:00,68.5,59.2,29.69,South,180,0.0,0.0,72,0.00,CLR,,0.40,WeatherDisplay:10.37,2013-06-04 01:28:00,
2013-06-03 21:33:00,68.5,59.5,29.69,South,180,0.0,0.0,73,0.00,CLR,,0.40,WeatherDisplay:10.37,2013-06-04 01:33:00,
2013-06-03 21:38:00,68.5,59.5,29.69,South,180,0.0,0.0,73,0.00,CLR,,0.40,WeatherDisplay:10.37,2013-06-04 01:38:00,
2013-06-03 21:43:00,68.7,60.1,29.69,South,180,0.0,0.0,74,0.00,CLR,,0.40,WeatherDisplay:10.37,2013-06-04 01:43:00,
2013-06-03 21:48:00,68.7,60.1,29.69,South,180,0.0,0.0,74,0.00,CLR,,0.40,WeatherDisplay:10.37,2013-06-04 01:48:00,
2013-06-03 21:53:00,68.5,59.9,29.69,South,180,0.0,0.0,74,0.00,CLR,,0.40,WeatherDisplay:10.37,2013-06-04 01:53:00,
2013-06-03 21:58:00,68.5,59.9,29.69,South,180,0.0,0.0,74,0.00,CLR,,0.40,WeatherDisplay:10.37,2013-06-04 01:58:00,
2013-06-03 22:03:00,68.5,60.3,29.69,South,180,0.0,0.0,75,0.00,CLR,,0.40,WeatherDisplay:10.37,2013-06-04 02:03:00,
2013-06-03 22:08:00,68.5,60.3,29.69,South,180,0.0,0.0,75,0.00,CLR,,0.40,WeatherDisplay:10.37,2013-06-04 02:08:00,
2013-06-03 22:13:00,68.5,60.3,29.69,South,180,0.0,0.0,75,0.00,CLR,,0.40,WeatherDisplay:10.37,2013-06-04 02:13:00,
2013-06-03 22:18:00,68.5,60.7,29.69,South,180,0.0,0.0,76,0.00,CLR,,0.40,WeatherDisplay:10.37,2013-06-04 02:18:00,
2013-06-03 22:23:00,68.5,60.7,29.69,South,180,0.0,0.0,76,0.00,CLR,,0.40,WeatherDisplay:10.37,2013-06-04 02:23:00,
2013-06-03 22:28:00,68.4,60.5,29.69,South,180,0.0,0.0,76,0.00,CLR,,0.40,WeatherDisplay:10.37,2013-06-04 02:28:00,
2013-06-03 22:33:00,68.4,60.5,29.68,South,180,0.0,0.0,76,0.00,CLR,,0.40,WeatherDisplay:10.37,2013-06-04 02:33:00,
2013-06-03 22:38:00,68.2,60.3,29.69,South,180,0.0,0.0,76,0.00,CLR,,0.40,WeatherDisplay:10.37,2013-06-04 02:38:00,
2013-06-03 22:43:00,68.0,60.2,29.69,South,180,0.0,0.0,76,0.00,CLR,,0.40,WeatherDisplay:10.37,2013-06-04 02:43:00,
2013-06-03 22:48:00,68.2,60.7,29.69,South,180,0.0,0.0,77,0.00,CLR,,0.40,WeatherDisplay:10.37,2013-06-04 02:48:00,
2013-06-03 22:53:00,68.2,60.7,29.69,South,180,0.0,0.0,77,0.00,CLR,,0.40,WeatherDisplay:10.37,2013-06-04 02:53:00,
2013-06-03 22:58:00,68.2,60.7,29.69,South,180,0.0,0.0,77,0.00,CLR,,0.40,WeatherDisplay:10.37,2013-06-04 02:58:00,
2013-06-03 23:03:00,68.4,61.2,29.69,South,180,0.0,0.0,78,0.00,CLR,,0.40,WeatherDisplay:10.37,2013-06-04 03:03:00,
2013-06-03 23:08:00,68.4,61.2,29.70,South,180,0.0,0.0,78,0.00,CLR,,0.40,WeatherDisplay:10.37,2013-06-04 03:08:00,
2013-06-03 23:13:00,68.5,61.8,29.70,South,180,0.0,0.0,79,0.00,CLR,,0.40,WeatherDisplay:10.37,2013-06-04 03:13:00,
2013-06-03 23:18:00,68.5,61.8,29.70,South,180,0.0,0.0,79,0.00,CLR,,0.40,WeatherDisplay:10.37,2013-06-04 03:18:00,
2013-06-03 23:23:00,68.5,61.8,29.70,South,180,0.0,0.0,79,0.00,CLR,,0.40,WeatherDisplay:10.37,2013-06-04 03:23:00,
2013-06-03 23:28:00,68.5,61.8,29.70,South,180,0.0,0.0,79,0.00,CLR,,0.40,WeatherDisplay:10.37,2013-06-04 03:28:00,
2013-06-03 23:33:00,68.5,62.1,29.70,South,180,0.0,0.0,80,0.00,CLR,,0.40,WeatherDisplay:10.37,2013-06-04 03:33:00,
2013-06-03 23:38:00,68.5,62.1,29.71,North,0,0.0,0.0,80,0.00,CLR,,0.40,WeatherDisplay:10.37,2013-06-04 03:38:00,
2013-06-03 23:43:00,68.5,62.1,29.72,NE,45,0.0,0.0,80,0.00,CLR,,0.40,WeatherDisplay:10.37,2013-06-04 03:43:00,
2013-06-03 23:48:00,68.5,62.1,29.71,South,180,0.0,0.0,80,0.00,CLR,,0.40,WeatherDisplay:10.37,2013-06-04 03:48:00,
2013-06-03 23:54:00,68.2,61.8,29.72,East,90,3.5,3.5,80,0.00,CLR,,0.40,WeatherDisplay:10.37,2013-06-04 03:54:00,
2013-06-03 23:59:00,68.0,61.6,29.72,SE,135,1.2,0.0,80,0.00,CLR,,0.40,WeatherDisplay:10.37,2013-06-04 03:59:00,